Aviation Digital Data Service (ADDS)

Output produced by METARs form (2309 UTC 24 August 2016)
found at http://aviationweather.gov/adds/metars/
 
KORH 241728Z 2418/2518 25007KT P6SM SKC 
     FM251400 23011KT P6SM FEW200